sensor_id;sensor_type;location;lat;lon;timestamp;pressure;altitude;pressure_sealevel;temperature;humidity
54872;BME280;43914;57.680;11.982;2023-10-08T00:02:17;101087.41;;;4.90;71.97
54872;BME280;43914;57.680;11.982;2023-10-08T00:04:51;101091.65;;;4.90;70.45
54872;BME280;43914;57.680;11.982;2023-10-08T00:07:21;101093.79;;;4.91;71.30
54872;BME280;43914;57.680;11.982;2023-10-08T00:09:48;101090.95;;;4.89;71.71
54872;BME280;43914;57.680;11.982;2023-10-08T00:12:16;101097.17;;;4.86;71.98
54872;BME280;43914;57.680;11.982;2023-10-08T00:14:43;101098.70;;;4.83;72.67
54872;BME280;43914;57.680;11.982;2023-10-08T00:17:15;101097.83;;;4.81;73.26
54872;BME280;43914;57.680;11.982;2023-10-08T00:19:41;101104.04;;;4.79;73.20
54872;BME280;43914;57.680;11.982;2023-10-08T00:22:12;101101.27;;;4.76;73.56
54872;BME280;43914;57.680;11.982;2023-10-08T00:24:43;101103.20;;;4.73;73.82
54872;BME280;43914;57.680;11.982;2023-10-08T00:27:09;101107.16;;;4.70;74.27
54872;BME280;43914;57.680;11.982;2023-10-08T00:29:34;101107.05;;;4.67;74.88
54872;BME280;43914;57.680;11.982;2023-10-08T00:32:04;101108.70;;;4.65;75.38
54872;BME280;43914;57.680;11.982;2023-10-08T00:34:37;101108.59;;;4.62;75.89
54872;BME280;43914;57.680;11.982;2023-10-08T00:37:08;101106.95;;;4.58;76.46
54872;BME280;43914;57.680;11.982;2023-10-08T00:39:39;101111.85;;;4.55;76.76
54872;BME280;43914;57.680;11.982;2023-10-08T00:42:06;101117.25;;;4.54;77.03
54872;BME280;43914;57.680;11.982;2023-10-08T00:44:36;101122.83;;;4.49;77.37
54872;BME280;43914;57.680;11.982;2023-10-08T00:47:13;101123.21;;;4.46;77.27
54872;BME280;43914;57.680;11.982;2023-10-08T00:49:39;101122.20;;;4.44;77.02
54872;BME280;43914;57.680;11.982;2023-10-08T00:52:14;101129.00;;;4.43;77.33
54872;BME280;43914;57.680;11.982;2023-10-08T00:54:41;101131.09;;;4.40;76.31
54872;BME280;43914;57.680;11.982;2023-10-08T00:57:18;101138.52;;;4.40;76.79
54872;BME280;43914;57.680;11.982;2023-10-08T00:59:46;101142.69;;;4.39;76.85
54872;BME280;43914;57.680;11.982;2023-10-08T01:02:28;101139.46;;;4.37;76.91
54872;BME280;43914;57.680;11.982;2023-10-08T01:04:54;101156.26;;;4.36;76.37
54872;BME280;43914;57.680;11.982;2023-10-08T01:07:21;101160.27;;;4.34;75.63
54872;BME280;43914;57.680;11.982;2023-10-08T01:09:49;101162.46;;;4.34;75.50
54872;BME280;43914;57.680;11.982;2023-10-08T01:12:25;101164.42;;;4.31;75.69
54872;BME280;43914;57.680;11.982;2023-10-08T01:15:09;101167.77;;;4.30;74.95
54872;BME280;43914;57.680;11.982;2023-10-08T01:17:53;101170.31;;;4.27;74.82
54872;BME280;43914;57.680;11.982;2023-10-08T01:20:37;101169.41;;;4.25;75.07
54872;BME280;43914;57.680;11.982;2023-10-08T01:23:05;101175.98;;;4.23;74.53
54872;BME280;43914;57.680;11.982;2023-10-08T01:25:37;101181.02;;;4.22;74.58
54872;BME280;43914;57.680;11.982;2023-10-08T01:28:04;101184.48;;;4.21;74.10
54872;BME280;43914;57.680;11.982;2023-10-08T01:30:37;101185.47;;;4.20;74.01
54872;BME280;43914;57.680;11.982;2023-10-08T01:33:09;101187.92;;;4.18;73.75
54872;BME280;43914;57.680;11.982;2023-10-08T01:35:40;101187.84;;;4.17;73.58
54872;BME280;43914;57.680;11.982;2023-10-08T01:38:07;101193.00;;;4.15;73.73
54872;BME280;43914;57.680;11.982;2023-10-08T01:40:40;101195.56;;;4.12;73.37
54872;BME280;43914;57.680;11.982;2023-10-08T01:43:05;101193.05;;;4.08;72.95
54872;BME280;43914;57.680;11.982;2023-10-08T01:45:31;101191.65;;;4.05;72.31
54872;BME280;43914;57.680;11.982;2023-10-08T01:47:57;101191.23;;;4.04;71.59
54872;BME280;43914;57.680;11.982;2023-10-08T01:50:23;101198.55;;;4.01;70.94
54872;BME280;43914;57.680;11.982;2023-10-08T01:52:59;101207.38;;;4.00;70.78
54872;BME280;43914;57.680;11.982;2023-10-08T01:55:26;101213.13;;;3.97;70.02
54872;BME280;43914;57.680;11.982;2023-10-08T01:57:52;101210.52;;;3.96;69.85
54872;BME280;43914;57.680;11.982;2023-10-08T02:00:18;101210.80;;;3.95;69.55
54872;BME280;43914;57.680;11.982;2023-10-08T02:02:49;101214.27;;;3.94;68.61
54872;BME280;43914;57.680;11.982;2023-10-08T02:05:20;101217.66;;;3.91;68.29
54872;BME280;43914;57.680;11.982;2023-10-08T02:07:46;101220.65;;;3.89;68.37
54872;BME280;43914;57.680;11.982;2023-10-08T02:10:12;101227.17;;;3.87;68.18
54872;BME280;43914;57.680;11.982;2023-10-08T02:12:40;101236.58;;;3.85;68.51
54872;BME280;43914;57.680;11.982;2023-10-08T02:15:07;101232.61;;;3.82;68.21
54872;BME280;43914;57.680;11.982;2023-10-08T02:17:34;101234.65;;;3.81;68.16
54872;BME280;43914;57.680;11.982;2023-10-08T02:20:00;101239.46;;;3.81;67.18
54872;BME280;43914;57.680;11.982;2023-10-08T02:22:30;101248.00;;;3.80;67.01
54872;BME280;43914;57.680;11.982;2023-10-08T02:24:56;101253.42;;;3.81;67.56
54872;BME280;43914;57.680;11.982;2023-10-08T02:27:29;101259.80;;;3.79;67.55
54872;BME280;43914;57.680;11.982;2023-10-08T02:29:54;101256.45;;;3.77;67.38
54872;BME280;43914;57.680;11.982;2023-10-08T02:32:21;101252.64;;;3.75;67.70
54872;BME280;43914;57.680;11.982;2023-10-08T02:34:49;101251.80;;;3.75;67.17
54872;BME280;43914;57.680;11.982;2023-10-08T02:37:16;101254.55;;;3.73;66.97
54872;BME280;43914;57.680;11.982;2023-10-08T02:39:41;101257.11;;;3.72;66.93
54872;BME280;43914;57.680;11.982;2023-10-08T02:42:07;101263.35;;;3.70;67.32
54872;BME280;43914;57.680;11.982;2023-10-08T02:44:36;101269.17;;;3.68;67.20
54872;BME280;43914;57.680;11.982;2023-10-08T02:47:09;101274.51;;;3.68;67.18
54872;BME280;43914;57.680;11.982;2023-10-08T02:49:39;101279.09;;;3.66;67.41
54872;BME280;43914;57.680;11.982;2023-10-08T02:52:07;101287.01;;;3.65;67.25
54872;BME280;43914;57.680;11.982;2023-10-08T02:54:36;101289.15;;;3.62;67.57
54872;BME280;43914;57.680;11.982;2023-10-08T02:57:03;101291.12;;;3.58;68.08
54872;BME280;43914;57.680;11.982;2023-10-08T02:59:34;101292.64;;;3.54;68.57
54872;BME280;43914;57.680;11.982;2023-10-08T03:02:11;101298.57;;;3.53;68.42
54872;BME280;43914;57.680;11.982;2023-10-08T03:04:54;101302.64;;;3.51;68.30
54872;BME280;43914;57.680;11.982;2023-10-08T03:07:20;101305.54;;;3.48;69.02
54872;BME280;43914;57.680;11.982;2023-10-08T03:09:57;101308.70;;;3.46;69.28
54872;BME280;43914;57.680;11.982;2023-10-08T03:12:31;101317.52;;;3.44;69.65
54872;BME280;43914;57.680;11.982;2023-10-08T03:15:17;101322.45;;;3.42;69.87
54872;BME280;43914;57.680;11.982;2023-10-08T03:18:03;101317.89;;;3.37;69.62
54872;BME280;43914;57.680;11.982;2023-10-08T03:20:54;101322.05;;;3.41;69.52
54872;BME280;43914;57.680;11.982;2023-10-08T03:23:28;101326.80;;;3.41;69.70
54872;BME280;43914;57.680;11.982;2023-10-08T03:26:03;101331.27;;;3.40;70.06
54872;BME280;43914;57.680;11.982;2023-10-08T03:29:00;101332.59;;;3.39;70.13
54872;BME280;43914;57.680;11.982;2023-10-08T03:31:44;101332.95;;;3.39;70.07
54872;BME280;43914;57.680;11.982;2023-10-08T03:34:13;101336.39;;;3.41;70.39
54872;BME280;43914;57.680;11.982;2023-10-08T03:36:41;101329.57;;;3.42;69.93
54872;BME280;43914;57.680;11.982;2023-10-08T03:39:11;101329.92;;;3.42;69.62
54872;BME280;43914;57.680;11.982;2023-10-08T03:41:41;101330.49;;;3.41;69.77
54872;BME280;43914;57.680;11.982;2023-10-08T03:44:08;101327.13;;;3.41;69.83
54872;BME280;43914;57.680;11.982;2023-10-08T03:46:59;101329.96;;;3.41;70.20
54872;BME280;43914;57.680;11.982;2023-10-08T03:49:31;101333.42;;;3.40;70.32
54872;BME280;43914;57.680;11.982;2023-10-08T03:51:57;101337.21;;;3.39;70.80
54872;BME280;43914;57.680;11.982;2023-10-08T03:54:23;101343.28;;;3.39;70.94
54872;BME280;43914;57.680;11.982;2023-10-08T03:56:56;101346.70;;;3.38;71.19
54872;BME280;43914;57.680;11.982;2023-10-08T03:59:21;101345.00;;;3.37;71.75
54872;BME280;43914;57.680;11.982;2023-10-08T04:02:07;101348.34;;;3.35;71.82
54872;BME280;43914;57.680;11.982;2023-10-08T04:04:44;101350.54;;;3.35;72.19
54872;BME280;43914;57.680;11.982;2023-10-08T04:07:23;101348.13;;;3.32;72.99
54872;BME280;43914;57.680;11.982;2023-10-08T04:09:59;101353.68;;;3.26;73.52
54872;BME280;43914;57.680;11.982;2023-10-08T04:12:35;101352.99;;;3.21;73.87
54872;BME280;43914;57.680;11.982;2023-10-08T04:15:04;101359.54;;;3.21;74.03
54872;BME280;43914;57.680;11.982;2023-10-08T04:17:34;101358.65;;;3.19;74.28
54872;BME280;43914;57.680;11.982;2023-10-08T04:20:14;101363.48;;;3.16;74.74
54872;BME280;43914;57.680;11.982;2023-10-08T04:22:59;101365.17;;;3.17;75.00
54872;BME280;43914;57.680;11.982;2023-10-08T04:25:28;101367.39;;;3.18;75.17
54872;BME280;43914;57.680;11.982;2023-10-08T04:27:56;101365.38;;;3.19;75.11
54872;BME280;43914;57.680;11.982;2023-10-08T04:30:32;101365.02;;;3.19;74.97
54872;BME280;43914;57.680;11.982;2023-10-08T04:33:05;101363.00;;;3.20;75.35
54872;BME280;43914;57.680;11.982;2023-10-08T04:35:53;101366.38;;;3.17;75.99
54872;BME280;43914;57.680;11.982;2023-10-08T04:38:24;101375.41;;;3.17;76.62
54872;BME280;43914;57.680;11.982;2023-10-08T04:41:05;101382.65;;;3.17;76.65
54872;BME280;43914;57.680;11.982;2023-10-08T04:43:34;101388.55;;;3.17;76.75
54872;BME280;43914;57.680;11.982;2023-10-08T04:46:03;101390.86;;;3.17;76.72
54872;BME280;43914;57.680;11.982;2023-10-08T04:49:04;101404.27;;;3.17;76.75
54872;BME280;43914;57.680;11.982;2023-10-08T04:51:43;101406.08;;;3.17;76.96
54872;BME280;43914;57.680;11.982;2023-10-08T04:54:14;101413.44;;;3.18;77.11
54872;BME280;43914;57.680;11.982;2023-10-08T04:56:50;101412.47;;;3.19;77.22
54872;BME280;43914;57.680;11.982;2023-10-08T04:59:18;101416.98;;;3.20;76.96
54872;BME280;43914;57.680;11.982;2023-10-08T05:01:47;101425.20;;;3.19;76.54
54872;BME280;43914;57.680;11.982;2023-10-08T05:04:14;101426.27;;;3.19;76.23
54872;BME280;43914;57.680;11.982;2023-10-08T05:06:51;101433.20;;;3.21;76.26
54872;BME280;43914;57.680;11.982;2023-10-08T05:09:27;101435.40;;;3.23;76.29
54872;BME280;43914;57.680;11.982;2023-10-08T05:12:06;101432.86;;;3.24;76.05
54872;BME280;43914;57.680;11.982;2023-10-08T05:14:50;101432.88;;;3.26;75.63
54872;BME280;43914;57.680;11.982;2023-10-08T05:17:36;101438.24;;;3.27;75.43
54872;BME280;43914;57.680;11.982;2023-10-08T05:20:21;101444.79;;;3.30;75.16
54872;BME280;43914;57.680;11.982;2023-10-08T05:23:13;101453.60;;;3.32;74.81
54872;BME280;43914;57.680;11.982;2023-10-08T05:25:56;101463.17;;;3.37;74.11
54872;BME280;43914;57.680;11.982;2023-10-08T05:28:36;101460.80;;;3.40;73.91
54872;BME280;43914;57.680;11.982;2023-10-08T05:31:14;101459.54;;;3.43;74.16
54872;BME280;43914;57.680;11.982;2023-10-08T05:33:40;101460.88;;;3.44;73.69
54872;BME280;43914;57.680;11.982;2023-10-08T05:36:25;101464.10;;;3.46;73.58
54872;BME280;43914;57.680;11.982;2023-10-08T05:39:02;101470.63;;;3.49;73.12
54872;BME280;43914;57.680;11.982;2023-10-08T05:41:45;101468.01;;;3.50;73.35
54872;BME280;43914;57.680;11.982;2023-10-08T05:44:18;101474.77;;;3.52;73.10
54872;BME280;43914;57.680;11.982;2023-10-08T05:46:45;101472.58;;;3.53;73.22
54872;BME280;43914;57.680;11.982;2023-10-08T05:49:36;101479.96;;;3.56;73.41
54872;BME280;43914;57.680;11.982;2023-10-08T05:52:18;101485.44;;;3.56;73.55
54872;BME280;43914;57.680;11.982;2023-10-08T05:55:17;101486.25;;;3.57;73.79
54872;BME280;43914;57.680;11.982;2023-10-08T05:57:59;101489.18;;;3.58;74.09
54872;BME280;43914;57.680;11.982;2023-10-08T06:00:45;101490.55;;;3.59;74.50
54872;BME280;43914;57.680;11.982;2023-10-08T06:03:14;101488.22;;;3.59;74.97
54872;BME280;43914;57.680;11.982;2023-10-08T06:06:02;101492.86;;;3.61;75.47
54872;BME280;43914;57.680;11.982;2023-10-08T06:08:56;101489.30;;;3.59;76.09
54872;BME280;43914;57.680;11.982;2023-10-08T06:11:57;101489.52;;;3.58;76.61
54872;BME280;43914;57.680;11.982;2023-10-08T06:14:35;101490.13;;;3.60;76.63
54872;BME280;43914;57.680;11.982;2023-10-08T06:17:33;101487.09;;;3.60;76.87
54872;BME280;43914;57.680;11.982;2023-10-08T06:20:17;101495.01;;;3.63;77.10
54872;BME280;43914;57.680;11.982;2023-10-08T06:22:49;101499.44;;;3.66;77.15
54872;BME280;43914;57.680;11.982;2023-10-08T06:25:15;101498.55;;;3.68;77.19
54872;BME280;43914;57.680;11.982;2023-10-08T06:27:49;101505.35;;;3.71;77.32
54872;BME280;43914;57.680;11.982;2023-10-08T06:30:19;101506.49;;;3.75;77.65
54872;BME280;43914;57.680;11.982;2023-10-08T06:32:44;101509.88;;;3.77;77.72
54872;BME280;43914;57.680;11.982;2023-10-08T06:35:11;101517.42;;;3.81;78.18
54872;BME280;43914;57.680;11.982;2023-10-08T06:37:46;101525.39;;;3.83;80.11
54872;BME280;43914;57.680;11.982;2023-10-08T06:40:20;101526.65;;;3.85;79.99
54872;BME280;43914;57.680;11.982;2023-10-08T06:43:04;101523.38;;;3.88;78.56
54872;BME280;43914;57.680;11.982;2023-10-08T06:45:50;101526.86;;;3.94;77.81
54872;BME280;43914;57.680;11.982;2023-10-08T06:48:22;101527.98;;;3.97;77.33
54872;BME280;43914;57.680;11.982;2023-10-08T06:50:58;101529.63;;;4.01;77.31
54872;BME280;43914;57.680;11.982;2023-10-08T06:53:24;101532.77;;;4.04;77.58
54872;BME280;43914;57.680;11.982;2023-10-08T06:55:50;101530.02;;;4.08;77.26
54872;BME280;43914;57.680;11.982;2023-10-08T06:58:25;101531.31;;;4.11;76.62
54872;BME280;43914;57.680;11.982;2023-10-08T07:00:51;101533.09;;;4.16;76.03
54872;BME280;43914;57.680;11.982;2023-10-08T07:03:17;101534.70;;;4.20;75.80
54872;BME280;43914;57.680;11.982;2023-10-08T07:05:48;101536.06;;;4.23;75.11
54872;BME280;43914;57.680;11.982;2023-10-08T07:08:24;101536.59;;;4.28;74.50
54872;BME280;43914;57.680;11.982;2023-10-08T07:10:50;101536.90;;;4.30;74.64
54872;BME280;43914;57.680;11.982;2023-10-08T07:13:16;101540.95;;;4.35;74.97
54872;BME280;43914;57.680;11.982;2023-10-08T07:15:48;101543.06;;;4.40;74.77
54872;BME280;43914;57.680;11.982;2023-10-08T07:18:14;101547.79;;;4.43;74.59
54872;BME280;43914;57.680;11.982;2023-10-08T07:20:45;101548.36;;;4.47;75.40
54872;BME280;43914;57.680;11.982;2023-10-08T07:23:11;101554.27;;;4.51;75.51
54872;BME280;43914;57.680;11.982;2023-10-08T07:26:03;101559.35;;;4.54;74.48
54872;BME280;43914;57.680;11.982;2023-10-08T07:28:50;101563.79;;;4.56;73.54
54872;BME280;43914;57.680;11.982;2023-10-08T07:31:29;101568.05;;;4.60;73.92
54872;BME280;43914;57.680;11.982;2023-10-08T07:33:56;101565.95;;;4.65;75.05
54872;BME280;43914;57.680;11.982;2023-10-08T07:36:42;101568.39;;;4.67;76.39
54872;BME280;43914;57.680;11.982;2023-10-08T07:39:09;101568.87;;;4.68;74.04
54872;BME280;43914;57.680;11.982;2023-10-08T07:41:54;101582.10;;;4.71;72.66
54872;BME280;43914;57.680;11.982;2023-10-08T07:44:21;101587.27;;;4.73;72.02
54872;BME280;43914;57.680;11.982;2023-10-08T07:46:51;101584.77;;;4.75;72.72
54872;BME280;43914;57.680;11.982;2023-10-08T07:49:20;101582.58;;;4.81;73.22
54872;BME280;43914;57.680;11.982;2023-10-08T07:51:46;101583.73;;;4.81;72.74
54872;BME280;43914;57.680;11.982;2023-10-08T07:54:18;101588.48;;;4.87;73.28
54872;BME280;43914;57.680;11.982;2023-10-08T07:56:46;101593.63;;;4.89;72.40
54872;BME280;43914;57.680;11.982;2023-10-08T07:59:12;101597.55;;;4.93;71.60
54872;BME280;43914;57.680;11.982;2023-10-08T08:01:41;101598.79;;;4.96;70.46
54872;BME280;43914;57.680;11.982;2023-10-08T08:04:09;101590.67;;;4.99;71.03
54872;BME280;43914;57.680;11.982;2023-10-08T08:06:37;101599.55;;;5.03;71.62
54872;BME280;43914;57.680;11.982;2023-10-08T08:09:03;101596.70;;;5.08;73.25
54872;BME280;43914;57.680;11.982;2023-10-08T08:11:48;101595.55;;;5.11;74.93
54872;BME280;43914;57.680;11.982;2023-10-08T08:14:15;101601.49;;;5.14;74.75
54872;BME280;43914;57.680;11.982;2023-10-08T08:16:50;101607.42;;;5.16;72.35
54872;BME280;43914;57.680;11.982;2023-10-08T08:19:17;101612.37;;;5.18;71.43
54872;BME280;43914;57.680;11.982;2023-10-08T08:21:49;101614.63;;;5.21;70.30
54872;BME280;43914;57.680;11.982;2023-10-08T08:24:14;101614.59;;;5.24;69.63
54872;BME280;43914;57.680;11.982;2023-10-08T08:26:57;101615.28;;;5.26;69.07
54872;BME280;43914;57.680;11.982;2023-10-08T08:29:58;101620.58;;;5.31;69.51
54872;BME280;43914;57.680;11.982;2023-10-08T08:32:39;101620.92;;;5.35;69.61
54872;BME280;43914;57.680;11.982;2023-10-08T08:35:09;101629.00;;;5.40;69.98
54872;BME280;43914;57.680;11.982;2023-10-08T08:37:36;101636.42;;;5.47;71.03
54872;BME280;43914;57.680;11.982;2023-10-08T08:40:06;101641.26;;;5.52;70.17
54872;BME280;43914;57.680;11.982;2023-10-08T08:42:49;101650.44;;;5.57;69.53
54872;BME280;43914;57.680;11.982;2023-10-08T08:45:23;101648.90;;;5.62;69.10
54872;BME280;43914;57.680;11.982;2023-10-08T08:47:53;101657.02;;;5.67;68.32
54872;BME280;43914;57.680;11.982;2023-10-08T08:50:19;101651.95;;;5.73;67.60
54872;BME280;43914;57.680;11.982;2023-10-08T08:52:46;101648.80;;;5.78;67.32
54872;BME280;43914;57.680;11.982;2023-10-08T08:55:12;101653.10;;;5.84;67.53
54872;BME280;43914;57.680;11.982;2023-10-08T08:57:47;101654.63;;;5.91;66.96
54872;BME280;43914;57.680;11.982;2023-10-08T09:00:14;101655.03;;;5.97;66.04
54872;BME280;43914;57.680;11.982;2023-10-08T09:02:41;101655.09;;;6.03;65.63
54872;BME280;43914;57.680;11.982;2023-10-08T09:05:10;101654.11;;;6.09;65.08
54872;BME280;43914;57.680;11.982;2023-10-08T09:08:03;101654.61;;;6.15;64.80
54872;BME280;43914;57.680;11.982;2023-10-08T09:10:31;101656.57;;;6.21;64.08
54872;BME280;43914;57.680;11.982;2023-10-08T09:13:03;101656.73;;;6.26;63.85
54872;BME280;43914;57.680;11.982;2023-10-08T09:15:29;101664.65;;;6.29;62.27
54872;BME280;43914;57.680;11.982;2023-10-08T09:17:56;101661.94;;;6.33;61.91
54872;BME280;43914;57.680;11.982;2023-10-08T09:20:25;101656.66;;;6.39;62.21
54872;BME280;43914;57.680;11.982;2023-10-08T09:23:08;101658.92;;;6.44;62.24
54872;BME280;43914;57.680;11.982;2023-10-08T09:25:37;101661.92;;;6.50;62.42
54872;BME280;43914;57.680;11.982;2023-10-08T09:28:04;101666.75;;;6.54;62.06
54872;BME280;43914;57.680;11.982;2023-10-08T09:30:36;101670.70;;;6.58;61.09
54872;BME280;43914;57.680;11.982;2023-10-08T09:33:08;101676.90;;;6.62;60.81
54872;BME280;43914;57.680;11.982;2023-10-08T09:35:34;101678.50;;;6.67;61.64
54872;BME280;43914;57.680;11.982;2023-10-08T09:38:02;101678.29;;;6.73;61.68
54872;BME280;43914;57.680;11.982;2023-10-08T09:40:28;101675.88;;;6.76;60.62
54872;BME280;43914;57.680;11.982;2023-10-08T09:42:55;101671.33;;;6.79;60.23
54872;BME280;43914;57.680;11.982;2023-10-08T09:45:21;101671.77;;;6.84;60.86
54872;BME280;43914;57.680;11.982;2023-10-08T09:47:50;101670.63;;;6.91;60.59
54872;BME280;43914;57.680;11.982;2023-10-08T09:50:22;101673.16;;;6.97;60.03
54872;BME280;43914;57.680;11.982;2023-10-08T09:53:03;101676.39;;;7.03;60.10
54872;BME280;43914;57.680;11.982;2023-10-08T09:55:33;101679.66;;;7.08;59.15
54872;BME280;43914;57.680;11.982;2023-10-08T09:57:59;101681.77;;;7.12;58.24
54872;BME280;43914;57.680;11.982;2023-10-08T10:00:26;101681.69;;;7.17;58.82
54872;BME280;43914;57.680;11.982;2023-10-08T10:02:59;101682.95;;;7.23;57.70
54872;BME280;43914;57.680;11.982;2023-10-08T10:05:30;101677.91;;;7.26;57.63
54872;BME280;43914;57.680;11.982;2023-10-08T10:07:57;101684.83;;;7.34;56.49
54872;BME280;43914;57.680;11.982;2023-10-08T10:10:28;101684.28;;;7.38;56.14
54872;BME280;43914;57.680;11.982;2023-10-08T10:13:06;101682.29;;;7.44;57.15
54872;BME280;43914;57.680;11.982;2023-10-08T10:15:39;101682.18;;;7.49;57.42
54872;BME280;43914;57.680;11.982;2023-10-08T10:18:16;101687.08;;;7.57;55.73
54872;BME280;43914;57.680;11.982;2023-10-08T10:20:58;101682.12;;;7.62;55.07
54872;BME280;43914;57.680;11.982;2023-10-08T10:23:37;101681.02;;;7.66;54.41
54872;BME280;43914;57.680;11.982;2023-10-08T10:26:31;101673.91;;;7.70;54.27
54872;BME280;43914;57.680;11.982;2023-10-08T10:34:30;101672.04;;;7.90;53.38
54872;BME280;43914;57.680;11.982;2023-10-08T10:37:00;101666.81;;;7.99;53.79
54872;BME280;43914;57.680;11.982;2023-10-08T10:39:57;101672.27;;;8.07;52.94
54872;BME280;43914;57.680;11.982;2023-10-08T10:42:27;101672.48;;;8.16;52.81
54872;BME280;43914;57.680;11.982;2023-10-08T10:44:54;101671.98;;;8.21;52.00
54872;BME280;43914;57.680;11.982;2023-10-08T10:47:22;101663.04;;;8.28;52.13
54872;BME280;43914;57.680;11.982;2023-10-08T10:49:49;101661.80;;;8.33;50.89
54872;BME280;43914;57.680;11.982;2023-10-08T10:52:33;101655.34;;;8.39;50.24
54872;BME280;43914;57.680;11.982;2023-10-08T10:55:17;101654.77;;;8.47;50.46
54872;BME280;43914;57.680;11.982;2023-10-08T10:57:50;101654.06;;;8.54;50.72
54872;BME280;43914;57.680;11.982;2023-10-08T11:00:31;101650.63;;;8.62;49.59
54872;BME280;43914;57.680;11.982;2023-10-08T11:03:01;101642.23;;;8.66;49.43
54872;BME280;43914;57.680;11.982;2023-10-08T11:05:46;101640.65;;;8.73;49.39
54872;BME280;43914;57.680;11.982;2023-10-08T11:08:15;101644.41;;;8.83;49.72
54872;BME280;43914;57.680;11.982;2023-10-08T11:10:44;101648.66;;;8.88;48.33
54872;BME280;43914;57.680;11.982;2023-10-08T11:13:19;101654.45;;;8.95;48.75
54872;BME280;43914;57.680;11.982;2023-10-08T11:15:52;101661.52;;;9.03;48.79
54872;BME280;43914;57.680;11.982;2023-10-08T11:18:23;101662.15;;;9.12;47.28
54872;BME280;43914;57.680;11.982;2023-10-08T11:20:50;101660.21;;;9.13;46.74
54872;BME280;43914;57.680;11.982;2023-10-08T11:23:35;101662.49;;;9.17;47.05
54872;BME280;43914;57.680;11.982;2023-10-08T11:26:03;101661.88;;;9.23;45.97
54872;BME280;43914;57.680;11.982;2023-10-08T11:28:37;101656.83;;;9.26;45.58
54872;BME280;43914;57.680;11.982;2023-10-08T11:31:13;101659.06;;;9.32;45.43
54872;BME280;43914;57.680;11.982;2023-10-08T11:33:44;101661.79;;;9.33;45.41
54872;BME280;43914;57.680;11.982;2023-10-08T11:36:30;101663.55;;;9.35;45.09
54872;BME280;43914;57.680;11.982;2023-10-08T11:39:11;101663.31;;;9.45;46.36
54872;BME280;43914;57.680;11.982;2023-10-08T11:41:58;101663.17;;;9.57;46.70
54872;BME280;43914;57.680;11.982;2023-10-08T11:44:29;101655.88;;;9.64;46.30
54872;BME280;43914;57.680;11.982;2023-10-08T11:46:56;101651.86;;;9.67;45.05
54872;BME280;43914;57.680;11.982;2023-10-08T11:49:30;101653.55;;;9.70;45.00
54872;BME280;43914;57.680;11.982;2023-10-08T11:51:58;101648.10;;;9.68;43.02
54872;BME280;43914;57.680;11.982;2023-10-08T11:54:26;101641.64;;;9.71;44.01
54872;BME280;43914;57.680;11.982;2023-10-08T11:56:52;101646.29;;;9.81;44.17
54872;BME280;43914;57.680;11.982;2023-10-08T11:59:18;101641.30;;;9.92;44.20
54872;BME280;43914;57.680;11.982;2023-10-08T12:01:44;101640.69;;;9.99;44.52
54872;BME280;43914;57.680;11.982;2023-10-08T12:04:11;101636.23;;;10.11;44.95
54872;BME280;43914;57.680;11.982;2023-10-08T12:06:43;101634.89;;;10.18;44.21
54872;BME280;43914;57.680;11.982;2023-10-08T12:09:18;101633.46;;;10.19;43.93
54872;BME280;43914;57.680;11.982;2023-10-08T12:11:48;101634.56;;;10.26;44.38
54872;BME280;43914;57.680;11.982;2023-10-08T12:14:13;101637.41;;;10.40;44.96
54872;BME280;43914;57.680;11.982;2023-10-08T12:16:40;101638.50;;;10.49;44.14
54872;BME280;43914;57.680;11.982;2023-10-08T12:19:07;101642.77;;;10.52;43.59
54872;BME280;43914;57.680;11.982;2023-10-08T12:21:45;101645.77;;;10.61;44.15
54872;BME280;43914;57.680;11.982;2023-10-08T12:24:12;101653.83;;;10.70;43.25
54872;BME280;43914;57.680;11.982;2023-10-08T12:26:38;101646.85;;;10.73;43.05
54872;BME280;43914;57.680;11.982;2023-10-08T12:29:14;101643.96;;;10.82;43.12
54872;BME280;43914;57.680;11.982;2023-10-08T12:31:40;101639.77;;;10.88;42.23
54872;BME280;43914;57.680;11.982;2023-10-08T12:34:05;101639.58;;;10.93;41.50
54872;BME280;43914;57.680;11.982;2023-10-08T12:36:31;101638.23;;;10.97;40.89
54872;BME280;43914;57.680;11.982;2023-10-08T12:39:01;101635.59;;;11.04;40.95
54872;BME280;43914;57.680;11.982;2023-10-08T12:41:35;101639.98;;;11.16;40.90
54872;BME280;43914;57.680;11.982;2023-10-08T12:44:04;101642.86;;;11.26;39.79
54872;BME280;43914;57.680;11.982;2023-10-08T12:46:33;101640.89;;;11.28;40.36
54872;BME280;43914;57.680;11.982;2023-10-08T12:49:05;101633.48;;;11.29;40.77
54872;BME280;43914;57.680;11.982;2023-10-08T12:51:31;101633.35;;;11.34;41.14
54872;BME280;43914;57.680;11.982;2023-10-08T12:54:01;101623.16;;;11.46;40.68
54872;BME280;43914;57.680;11.982;2023-10-08T12:56:36;101619.69;;;11.53;39.81
54872;BME280;43914;57.680;11.982;2023-10-08T12:59:10;101619.86;;;11.50;38.45
54872;BME280;43914;57.680;11.982;2023-10-08T13:01:46;101616.29;;;11.46;39.71
54872;BME280;43914;57.680;11.982;2023-10-08T13:04:19;101614.02;;;11.46;39.58
54872;BME280;43914;57.680;11.982;2023-10-08T13:07:00;101612.05;;;11.47;40.26
54872;BME280;43914;57.680;11.982;2023-10-08T13:09:31;101611.41;;;11.50;40.39
54872;BME280;43914;57.680;11.982;2023-10-08T13:11:56;101611.58;;;11.53;40.53
54872;BME280;43914;57.680;11.982;2023-10-08T13:14:25;101613.05;;;11.54;40.69
54872;BME280;43914;57.680;11.982;2023-10-08T13:16:51;101620.46;;;11.59;40.19
54872;BME280;43914;57.680;11.982;2023-10-08T13:19:19;101621.58;;;11.55;39.55
54872;BME280;43914;57.680;11.982;2023-10-08T13:21:45;101616.79;;;11.53;39.74
54872;BME280;43914;57.680;11.982;2023-10-08T13:24:11;101617.52;;;11.55;39.78